createdAt,value
2023-04-14T00:01:34.099Z,2.78
2023-04-14T00:04:02.612Z,3.30
2023-04-14T00:06:30.981Z,3.50
2023-04-14T00:08:59.506Z,2.85
2023-04-14T00:11:29.480Z,2.60
2023-04-14T00:13:58.508Z,2.75
2023-04-14T00:16:26.929Z,2.88
2023-04-14T00:18:55.296Z,3.42
2023-04-14T00:21:23.625Z,2.33
2023-04-14T00:23:52.251Z,2.25
2023-04-14T00:26:20.777Z,2.20
2023-04-14T00:28:50.695Z,3.60
2023-04-14T00:31:19.442Z,2.42
2023-04-14T00:33:47.802Z,3.63
2023-04-14T00:36:16.176Z,2.58
2023-04-14T00:38:44.625Z,2.20
2023-04-14T00:41:12.871Z,3.20
2023-04-14T00:43:41.262Z,2.22
2023-04-14T00:46:11.728Z,2.63
2023-04-14T00:48:40.067Z,2.45
2023-04-14T00:51:10.106Z,2.83
2023-04-14T00:53:39.070Z,2.60
2023-04-14T00:56:08.375Z,2.83
2023-04-14T00:58:36.979Z,2.42
2023-04-14T01:01:05.853Z,2.40
2023-04-14T01:03:37.391Z,2.05
2023-04-14T01:06:06.269Z,2.35
2023-04-14T01:08:37.148Z,2.97
2023-04-14T01:11:13.785Z,2.55
2023-04-14T01:13:49.544Z,2.03
2023-04-14T01:16:22.340Z,2.15
2023-04-14T01:18:59.486Z,2.45
2023-04-14T01:21:33.751Z,2.30
2023-04-14T01:24:18.257Z,3.33
2023-04-14T01:26:47.144Z,2.35
2023-04-14T01:29:38.260Z,2.22
2023-04-14T01:32:10.660Z,2.55
2023-04-14T01:34:46.106Z,2.47
2023-04-14T01:37:18.268Z,2.22
2023-04-14T01:39:51.098Z,2.10
2023-04-14T01:42:23.501Z,3.75
2023-04-14T01:44:57.199Z,2.00
2023-04-14T01:47:27.953Z,2.50
2023-04-14T01:49:58.248Z,2.20
2023-04-14T01:52:28.073Z,3.17
2023-04-14T01:54:59.466Z,1.95
2023-04-14T01:57:30.338Z,3.10
2023-04-14T02:00:01.941Z,2.40
2023-04-14T02:02:34.890Z,2.50
2023-04-14T02:05:04.963Z,2.75
2023-04-14T02:07:34.859Z,2.20
2023-04-14T02:10:06.268Z,2.20
2023-04-14T02:12:36.565Z,3.00
2023-04-14T02:15:07.193Z,2.10
2023-04-14T02:17:37.782Z,2.20
2023-04-14T02:20:09.915Z,1.50
2023-04-14T02:22:38.724Z,2.30
2023-04-14T02:25:08.094Z,2.55
2023-04-14T02:27:40.816Z,2.25
2023-04-14T02:30:13.206Z,2.78
2023-04-14T02:32:50.525Z,1.92
2023-04-14T02:35:26.977Z,2.42
2023-04-14T02:37:59.075Z,2.38
2023-04-14T02:40:30.774Z,2.50
2023-04-14T02:43:06.344Z,2.65
2023-04-14T02:45:38.062Z,2.35
2023-04-14T02:48:12.842Z,1.90
2023-04-14T02:50:45.643Z,2.10
2023-04-14T02:53:21.895Z,2.25
2023-04-14T02:55:52.722Z,2.50
2023-04-14T02:58:22.517Z,1.88
2023-04-14T03:00:52.367Z,3.45
2023-04-14T03:03:22.872Z,3.85
2023-04-14T03:05:52.090Z,2.65
2023-04-14T03:08:21.555Z,1.80
2023-04-14T03:10:54.191Z,3.45
2023-04-14T03:13:28.691Z,4.82
2023-04-14T03:15:58.592Z,2.33
2023-04-14T03:18:29.255Z,2.30
2023-04-14T03:21:00.970Z,1.58
2023-04-14T03:23:31.432Z,2.25
2023-04-14T03:26:04.321Z,2.35
2023-04-14T03:28:37.761Z,2.00
2023-04-14T03:31:11.961Z,2.47
2023-04-14T03:33:55.854Z,2.70
2023-04-14T03:36:27.267Z,2.42
2023-04-14T03:39:01.729Z,2.38
2023-04-14T03:41:37.883Z,2.65
2023-04-14T03:44:15.782Z,3.05
2023-04-14T03:46:47.013Z,2.38
2023-04-14T03:49:21.052Z,2.25
2023-04-14T03:51:53.616Z,2.30
2023-04-14T03:54:25.675Z,2.17
2023-04-14T03:56:56.891Z,3.67
2023-04-14T03:59:28.819Z,2.08
2023-04-14T04:01:59.000Z,2.72
2023-04-14T04:04:30.453Z,2.10
2023-04-14T04:07:00.044Z,2.05
2023-04-14T04:09:31.190Z,3.03
2023-04-14T04:12:02.432Z,3.60
2023-04-14T04:14:38.511Z,1.90
2023-04-14T04:17:10.187Z,3.53
2023-04-14T04:19:41.228Z,2.20
2023-04-14T04:22:12.456Z,2.40
2023-04-14T04:24:41.750Z,2.13
2023-04-14T04:27:27.178Z,2.10
2023-04-14T04:30:01.662Z,1.92
2023-04-14T04:32:33.299Z,1.80
2023-04-14T04:35:04.663Z,1.52
2023-04-14T04:37:34.794Z,1.92
2023-04-14T04:40:03.917Z,2.17
2023-04-14T04:42:33.492Z,2.30
2023-04-14T04:45:01.794Z,1.80
2023-04-14T04:47:30.044Z,2.00
2023-04-14T04:49:58.485Z,2.08
2023-04-14T04:52:28.121Z,1.90
2023-04-14T04:54:56.538Z,1.48
2023-04-14T04:57:24.886Z,2.00
2023-04-14T04:59:53.319Z,2.08
2023-04-14T05:02:22.013Z,1.85
2023-04-14T05:04:50.989Z,1.83
2023-04-14T05:07:19.878Z,2.50
2023-04-14T05:09:49.593Z,1.45
2023-04-14T05:12:17.821Z,1.90
2023-04-14T05:14:46.290Z,2.28
2023-04-14T05:17:14.646Z,2.15
2023-04-14T05:19:42.790Z,1.60
2023-04-14T05:22:11.588Z,1.80
2023-04-14T05:24:40.368Z,1.65
2023-04-14T05:27:14.349Z,1.55
2023-04-14T05:29:43.112Z,1.75
2023-04-14T05:32:13.200Z,1.70
2023-04-14T05:34:41.973Z,1.30
2023-04-14T05:37:10.890Z,2.00
2023-04-14T05:39:39.299Z,2.20
2023-04-14T05:42:07.513Z,1.88
2023-04-14T05:44:37.645Z,1.65
2023-04-14T05:47:06.114Z,1.65
2023-04-14T05:49:34.378Z,1.60
2023-04-14T05:52:02.734Z,1.50
2023-04-14T05:54:31.227Z,1.98
2023-04-14T05:56:59.568Z,1.30
2023-04-14T05:59:28.031Z,1.20
2023-04-14T06:01:58.056Z,1.58
2023-04-14T06:04:26.654Z,1.70
2023-04-14T06:06:55.155Z,2.17
2023-04-14T06:09:23.478Z,1.40
2023-04-14T06:11:51.627Z,1.50
2023-04-14T06:14:20.204Z,1.25
2023-04-14T06:16:48.427Z,1.20
2023-04-14T06:19:19.524Z,1.83
2023-04-14T06:21:47.811Z,1.70
2023-04-14T06:24:17.635Z,1.70
2023-04-14T06:26:46.642Z,1.63
2023-04-14T06:29:15.012Z,2.05
2023-04-14T06:31:43.582Z,1.27
2023-04-14T06:34:12.428Z,2.05
2023-04-14T06:36:42.110Z,1.90
2023-04-14T06:39:10.862Z,1.23
2023-04-14T06:41:39.249Z,1.30
2023-04-14T06:44:07.723Z,1.38
2023-04-14T06:46:36.235Z,3.53
2023-04-14T06:49:05.084Z,1.30
2023-04-14T06:51:35.428Z,1.98
2023-04-14T06:54:05.490Z,1.77
2023-04-14T06:56:33.755Z,2.13
2023-04-14T06:59:02.469Z,2.17
2023-04-14T07:01:31.017Z,1.15
2023-04-14T07:03:59.750Z,1.80
2023-04-14T07:06:28.309Z,1.33
2023-04-14T07:08:57.126Z,1.45
2023-04-14T07:11:26.906Z,1.73
2023-04-14T07:13:55.182Z,1.80
2023-04-14T07:16:23.902Z,2.65
2023-04-14T07:18:52.347Z,1.20
2023-04-14T07:21:20.833Z,1.88
2023-04-14T07:23:49.279Z,2.40
2023-04-14T07:26:17.526Z,1.95
2023-04-14T07:28:47.443Z,1.92
2023-04-14T07:31:16.004Z,2.35
2023-04-14T07:33:44.412Z,2.25
2023-04-14T07:36:12.802Z,1.55
2023-04-14T07:38:41.593Z,2.45
2023-04-14T07:41:09.896Z,1.80
2023-04-14T07:43:40.053Z,2.70
2023-04-14T07:46:10.105Z,1.85
2023-04-14T07:48:39.244Z,1.67
2023-04-14T07:51:07.899Z,1.92
2023-04-14T07:53:40.482Z,1.45
2023-04-14T07:56:09.098Z,1.42
2023-04-14T07:58:37.513Z,1.50
2023-04-14T08:01:06.522Z,1.75
2023-04-14T08:03:38.047Z,2.08
2023-04-14T08:06:07.677Z,1.40
2023-04-14T08:08:36.282Z,1.73
2023-04-14T08:11:04.812Z,2.17
2023-04-14T08:13:33.021Z,2.13
2023-04-14T08:16:01.587Z,1.80
2023-04-14T08:18:30.054Z,1.77
2023-04-14T08:20:59.688Z,2.15
2023-04-14T08:23:28.184Z,1.60
2023-04-14T08:25:56.619Z,1.85
2023-04-14T08:28:25.070Z,2.05
2023-04-14T08:30:53.354Z,1.95
2023-04-14T08:33:21.796Z,2.33
2023-04-14T08:35:58.186Z,1.50
2023-04-14T08:38:30.036Z,1.75
2023-04-14T08:40:58.746Z,2.50
2023-04-14T08:43:27.018Z,1.92
2023-04-14T08:45:56.458Z,2.20
2023-04-14T08:48:30.740Z,1.70
2023-04-14T08:51:08.031Z,1.80
2023-04-14T08:53:43.878Z,2.20
2023-04-14T08:56:13.878Z,2.03
2023-04-14T08:58:43.192Z,2.85
2023-04-14T09:01:11.593Z,1.42
2023-04-14T09:03:41.115Z,1.70
2023-04-14T09:06:10.065Z,2.38
2023-04-14T09:08:40.122Z,4.20
2023-04-14T09:11:08.612Z,3.60
2023-04-14T09:13:38.880Z,2.15
2023-04-14T09:16:08.955Z,2.00
2023-04-14T09:18:37.320Z,1.60
2023-04-14T09:21:50.678Z,3.60
2023-04-14T09:23:58.840Z,2.88
2023-04-14T09:26:28.462Z,1.60
2023-04-14T09:28:56.609Z,2.03
2023-04-14T09:31:25.941Z,1.55
2023-04-14T09:33:54.607Z,2.35
2023-04-14T09:36:24.652Z,1.50
2023-04-14T09:38:53.105Z,1.52
2023-04-14T09:41:23.917Z,2.00
2023-04-14T09:43:52.863Z,1.80
2023-04-14T09:46:21.883Z,2.05
2023-04-14T09:48:55.509Z,1.20
2023-04-14T09:51:25.145Z,1.50
2023-04-14T09:53:54.288Z,1.88
2023-04-14T09:56:28.580Z,2.28
2023-04-14T09:59:01.182Z,1.80
2023-04-14T10:01:33.681Z,1.77
2023-04-14T10:04:03.460Z,2.20
2023-04-14T10:06:32.520Z,1.40
2023-04-14T10:09:01.612Z,1.60
2023-04-14T10:11:33.541Z,1.80
2023-04-14T10:14:04.206Z,1.55
2023-04-14T10:16:33.311Z,1.65
2023-04-14T10:19:03.021Z,1.63
2023-04-14T10:21:31.917Z,1.63
2023-04-14T10:24:00.979Z,2.00
2023-04-14T10:26:31.524Z,1.50
2023-04-14T10:29:02.235Z,1.40
2023-04-14T10:31:37.828Z,2.45
2023-04-14T10:34:10.804Z,2.47
2023-04-14T10:36:40.224Z,1.65
2023-04-14T10:39:10.068Z,1.85
2023-04-14T10:41:47.285Z,1.85
2023-04-14T10:44:26.138Z,1.70
2023-04-14T10:46:56.431Z,1.80
2023-04-14T10:49:30.561Z,1.75
2023-04-14T10:52:00.901Z,2.13
2023-04-14T10:54:29.126Z,1.77
2023-04-14T10:57:14.590Z,1.67
2023-04-14T10:59:43.901Z,1.63
2023-04-14T11:02:26.384Z,1.02
2023-04-14T11:05:04.354Z,1.70
2023-04-14T11:07:38.225Z,1.52
2023-04-14T11:10:28.222Z,2.22
2023-04-14T11:12:59.154Z,1.80
2023-04-14T11:15:44.578Z,2.03
2023-04-14T11:18:15.957Z,1.95
2023-04-14T11:20:45.221Z,1.70
2023-04-14T11:23:16.680Z,1.70
2023-04-14T11:25:45.627Z,1.63
2023-04-14T11:28:15.468Z,2.15
2023-04-14T11:30:44.692Z,2.10
2023-04-14T11:33:16.161Z,1.63
2023-04-14T11:35:44.688Z,1.75
2023-04-14T11:38:16.075Z,1.60
2023-04-14T11:40:49.637Z,1.60
2023-04-14T11:43:22.189Z,1.63
2023-04-14T11:45:53.152Z,1.98
2023-04-14T11:48:21.788Z,1.67
2023-04-14T11:50:50.474Z,1.80
2023-04-14T11:53:20.139Z,1.60
2023-04-14T11:55:50.538Z,1.90
2023-04-14T11:58:24.546Z,1.45
2023-04-14T12:00:56.053Z,1.95
2023-04-14T12:03:28.720Z,1.95
2023-04-14T12:06:00.062Z,1.38
2023-04-14T12:08:31.788Z,1.50
2023-04-14T12:11:13.369Z,1.55
2023-04-14T12:13:43.945Z,1.10
2023-04-14T12:16:13.451Z,1.58
2023-04-14T12:18:42.313Z,1.60
2023-04-14T12:21:12.045Z,1.85
2023-04-14T12:23:41.475Z,1.30
2023-04-14T12:26:13.847Z,1.20
2023-04-14T12:28:43.904Z,2.15
2023-04-14T12:31:12.587Z,1.60
2023-04-14T12:33:41.523Z,1.92
2023-04-14T12:36:14.151Z,2.60
2023-04-14T12:38:42.862Z,1.70
2023-04-14T12:41:11.912Z,2.00
2023-04-14T12:43:41.450Z,1.40
2023-04-14T12:46:11.278Z,2.85
2023-04-14T12:48:43.855Z,1.30
2023-04-14T12:51:14.021Z,1.38
2023-04-14T12:53:43.833Z,1.55
2023-04-14T12:56:14.222Z,1.42
2023-04-14T12:58:43.719Z,1.42
2023-04-14T13:01:14.629Z,1.75
2023-04-14T13:03:45.994Z,2.55
2023-04-14T13:06:17.911Z,1.30
2023-04-14T13:08:47.775Z,1.65
2023-04-14T13:11:17.296Z,1.70
2023-04-14T13:13:45.825Z,1.27
2023-04-14T13:16:18.017Z,1.20
2023-04-14T13:18:48.021Z,1.23
2023-04-14T13:21:16.636Z,1.40
2023-04-14T13:23:45.582Z,1.52
2023-04-14T13:26:13.897Z,1.70
2023-04-14T13:28:42.608Z,2.40
2023-04-14T13:31:13.151Z,1.63
2023-04-14T13:33:42.700Z,2.80
2023-04-14T13:36:11.056Z,2.03
2023-04-14T13:38:39.339Z,2.28
2023-04-14T13:41:07.820Z,1.23
2023-04-14T13:43:36.288Z,1.45
2023-04-14T13:46:04.951Z,1.58
2023-04-14T13:48:33.477Z,1.92
2023-04-14T13:51:03.105Z,1.90
2023-04-14T13:53:31.642Z,2.15
2023-04-14T13:55:59.882Z,1.52
2023-04-14T13:58:28.480Z,1.70
2023-04-14T14:00:57.015Z,1.30
2023-04-14T14:03:26.598Z,1.85
2023-04-14T14:05:56.096Z,1.90
2023-04-14T14:08:26.242Z,1.83
2023-04-14T14:10:54.706Z,1.90
2023-04-14T14:13:23.079Z,1.60
2023-04-14T14:15:51.515Z,2.25
2023-04-14T14:18:19.648Z,2.10
2023-04-14T14:20:48.352Z,1.95
2023-04-14T14:23:16.589Z,1.85
2023-04-14T14:25:46.872Z,1.50
2023-04-14T14:28:15.171Z,2.30
2023-04-14T14:30:43.679Z,1.85
2023-04-14T14:33:11.851Z,1.50
2023-04-14T14:35:40.419Z,1.80
2023-04-14T14:38:08.626Z,1.75
2023-04-14T14:40:37.257Z,1.50
2023-04-14T14:43:06.993Z,1.58
2023-04-14T14:45:35.343Z,1.92
2023-04-14T14:48:04.536Z,1.52
2023-04-14T14:50:33.193Z,1.30
2023-04-14T14:53:01.495Z,1.20
2023-04-14T14:55:29.874Z,1.77
2023-04-14T14:57:58.556Z,1.83
2023-04-14T15:00:28.153Z,1.60
2023-04-14T15:02:56.639Z,1.73
2023-04-14T15:05:25.424Z,1.67
2023-04-14T15:07:54.052Z,1.55
2023-04-14T15:10:22.302Z,2.38
2023-04-14T15:12:51.135Z,1.58
2023-04-14T15:15:20.370Z,1.50
2023-04-14T15:17:50.058Z,1.50
2023-04-14T15:20:18.447Z,2.35
2023-04-14T15:22:46.859Z,1.80
2023-04-14T15:25:15.671Z,1.55
2023-04-14T15:27:44.188Z,1.83
2023-04-14T15:30:13.297Z,1.67
2023-04-14T15:32:41.813Z,1.73
2023-04-14T15:35:11.729Z,1.52
2023-04-14T15:37:40.381Z,1.63
2023-04-14T15:40:10.654Z,2.15
2023-04-14T15:42:39.183Z,2.00
2023-04-14T15:45:08.678Z,1.52
2023-04-14T15:47:36.941Z,1.58
2023-04-14T15:50:09.761Z,1.50
2023-04-14T15:52:49.764Z,2.30
2023-04-14T15:55:18.080Z,1.45
2023-04-14T15:57:46.645Z,1.85
2023-04-14T16:00:15.822Z,2.25
2023-04-14T16:02:46.003Z,1.38
2023-04-14T16:05:14.711Z,1.50
2023-04-14T16:07:43.986Z,1.85
2023-04-14T16:10:13.788Z,2.20
2023-04-14T16:12:42.494Z,1.30
2023-04-14T16:15:11.741Z,1.80
2023-04-14T16:17:40.394Z,1.83
2023-04-14T16:20:09.821Z,1.13
2023-04-14T16:22:38.220Z,1.50
2023-04-14T16:25:07.456Z,2.05
2023-04-14T16:27:37.583Z,1.60
2023-04-14T16:30:07.044Z,1.33
2023-04-14T16:32:35.308Z,1.52
2023-04-14T16:35:03.876Z,1.65
2023-04-14T16:37:32.117Z,1.73
2023-04-14T16:40:00.594Z,1.52
2023-04-14T16:42:29.320Z,2.20
2023-04-14T16:44:59.113Z,1.65
2023-04-14T16:47:27.655Z,2.88
2023-04-14T16:49:56.092Z,1.42
2023-04-14T16:52:26.486Z,1.80
2023-04-14T16:54:59.464Z,1.30
2023-04-14T16:57:32.771Z,1.77
2023-04-14T17:00:02.887Z,1.98
2023-04-14T17:02:31.942Z,3.95
2023-04-14T17:05:00.742Z,2.22
2023-04-14T17:07:29.042Z,1.80
2023-04-14T17:09:57.850Z,1.50
2023-04-14T17:12:26.670Z,1.85
2023-04-14T17:14:55.039Z,1.40
2023-04-14T17:17:25.210Z,1.50
2023-04-14T17:19:55.187Z,1.83
2023-04-14T17:22:24.863Z,1.50
2023-04-14T17:24:53.460Z,1.30
2023-04-14T17:27:22.487Z,1.20
2023-04-14T17:29:50.987Z,1.65
2023-04-14T17:32:20.054Z,1.42
2023-04-14T17:34:51.192Z,1.70
2023-04-14T17:37:19.889Z,2.10
2023-04-14T17:39:49.250Z,1.70
2023-04-14T17:42:17.667Z,2.05
2023-04-14T17:44:46.260Z,1.50
2023-04-14T17:47:15.672Z,1.20
2023-04-14T17:49:45.164Z,1.30
2023-04-14T17:52:22.639Z,1.40
2023-04-14T17:54:51.874Z,1.33
2023-04-14T17:57:20.638Z,1.50
2023-04-14T17:59:49.115Z,1.30
2023-04-14T18:02:20.586Z,1.58
2023-04-14T18:04:49.177Z,1.35
2023-04-14T18:07:18.989Z,2.13
2023-04-14T18:09:48.784Z,1.70
2023-04-14T18:12:17.135Z,1.75
2023-04-14T18:14:45.940Z,1.65
2023-04-14T18:17:14.330Z,1.20
2023-04-14T18:19:43.125Z,1.55
2023-04-14T18:22:12.140Z,1.38
2023-04-14T18:29:44.736Z,1.90
2023-04-14T18:32:13.780Z,1.90
2023-04-14T18:34:42.322Z,2.05
2023-04-14T18:37:10.979Z,1.92
2023-04-14T18:39:40.199Z,1.77
2023-04-14T18:42:08.395Z,2.10
2023-04-14T18:44:38.491Z,1.83
2023-04-14T18:47:06.830Z,2.13
2023-04-14T18:49:35.606Z,2.70
2023-04-14T18:52:03.905Z,2.10
2023-04-14T18:54:32.536Z,1.75
2023-04-14T18:57:01.200Z,1.80
2023-04-14T18:59:29.596Z,2.55
2023-04-14T19:01:59.859Z,1.80
2023-04-14T19:04:28.601Z,2.22
2023-04-14T19:06:57.332Z,2.50
2023-04-14T19:09:27.736Z,2.50
2023-04-14T19:11:56.115Z,2.40
2023-04-14T19:14:24.488Z,1.77
2023-04-14T19:16:53.239Z,2.10
2023-04-14T19:19:22.879Z,2.55
2023-04-14T19:21:51.398Z,2.28
2023-04-14T19:24:19.921Z,2.30
2023-04-14T19:26:48.509Z,1.65
2023-04-14T19:29:17.177Z,2.10
2023-04-14T19:31:45.559Z,1.80
2023-04-14T19:34:13.783Z,1.30
2023-04-14T19:36:43.726Z,1.90
2023-04-14T19:39:11.923Z,1.75
2023-04-14T19:41:39.925Z,1.85
2023-04-14T19:47:10.687Z,1.70
2023-04-14T19:49:39.322Z,1.98
2023-04-14T19:52:09.126Z,2.17
2023-04-14T19:54:37.903Z,2.30
2023-04-14T19:57:06.718Z,3.75
2023-04-14T19:59:35.156Z,2.45
2023-04-14T20:02:32.284Z,2.88
2023-04-14T20:05:43.196Z,2.40
2023-04-14T20:11:25.114Z,2.92
2023-04-14T20:13:56.755Z,3.45
2023-04-14T20:16:26.783Z,3.35
2023-04-14T20:18:56.788Z,2.63
2023-04-14T20:21:27.878Z,2.50
2023-04-14T20:24:06.343Z,2.10
2023-04-14T20:26:45.202Z,2.13
2023-04-14T20:29:28.469Z,2.38
2023-04-14T20:32:11.674Z,2.80
2023-04-14T20:34:46.874Z,3.25
2023-04-14T20:37:16.941Z,2.35
2023-04-14T20:39:48.559Z,2.55
2023-04-14T20:42:23.795Z,3.08
2023-04-14T20:44:57.966Z,1.98
2023-04-14T20:47:28.579Z,2.40
2023-04-14T20:50:03.609Z,2.13
2023-04-14T20:52:35.432Z,2.08
2023-04-14T20:55:15.317Z,1.80
2023-04-14T20:58:06.325Z,3.13
2023-04-14T21:00:50.733Z,1.67
2023-04-14T21:03:36.623Z,2.65
2023-04-14T21:06:10.058Z,3.00
2023-04-14T21:08:52.564Z,3.60
2023-04-14T21:11:36.874Z,3.15
2023-04-14T21:15:30.244Z,3.20
2023-04-14T21:17:22.828Z,2.78
2023-04-14T21:20:14.455Z,3.58
2023-04-14T21:23:07.087Z,2.63
2023-04-14T21:25:54.331Z,3.90
2023-04-14T21:29:07.007Z,4.20
2023-04-14T21:31:46.812Z,3.97
2023-04-14T21:34:29.236Z,3.22
2023-04-14T21:37:08.214Z,2.67
2023-04-14T21:42:50.870Z,3.40
2023-04-14T21:45:20.539Z,2.83
2023-04-14T21:47:48.936Z,2.85
2023-04-14T21:50:17.462Z,3.13
2023-04-14T21:52:46.616Z,2.95
2023-04-14T21:55:16.952Z,3.22
2023-04-14T21:57:49.150Z,3.17
2023-04-14T22:00:21.403Z,2.80
2023-04-14T22:02:49.957Z,3.13
2023-04-14T22:05:19.036Z,3.35
2023-04-14T22:07:47.274Z,3.08
2023-04-14T22:10:15.788Z,2.88
2023-04-14T22:12:44.763Z,4.35
2023-04-14T22:15:14.681Z,3.13
2023-04-14T22:17:45.818Z,3.50
2023-04-14T22:20:14.391Z,3.40
2023-04-14T22:22:42.946Z,3.05
2023-04-14T22:25:11.676Z,3.78
2023-04-14T22:27:40.007Z,3.28
2023-04-14T22:30:10.187Z,4.00
2023-04-14T22:32:38.885Z,3.60
2023-04-14T22:35:09.474Z,4.20
2023-04-14T22:37:37.841Z,3.70
2023-04-14T22:40:07.625Z,3.10
2023-04-14T22:42:36.817Z,3.20
2023-04-14T22:45:06.395Z,3.50
2023-04-14T22:47:34.849Z,3.33
2023-04-14T22:50:03.484Z,3.30
2023-04-14T22:52:33.510Z,3.15
2023-04-14T22:55:02.447Z,4.05
2023-04-14T22:57:31.159Z,3.40
2023-04-14T22:59:59.500Z,3.28
2023-04-14T23:02:28.174Z,3.30
2023-04-14T23:04:56.618Z,4.00
2023-04-14T23:07:25.223Z,3.38
2023-04-14T23:09:54.870Z,3.10
2023-04-14T23:12:23.250Z,2.88
2023-04-14T23:14:51.753Z,2.80
2023-04-14T23:17:20.279Z,2.10
2023-04-14T23:19:48.724Z,2.95
2023-04-14T23:22:18.201Z,2.55
2023-04-14T23:24:46.974Z,2.80
2023-04-14T23:27:16.993Z,2.42
2023-04-14T23:29:45.343Z,2.38
2023-04-14T23:32:14.500Z,2.97
2023-04-14T23:34:42.802Z,3.22
2023-04-14T23:37:11.078Z,3.22
2023-04-14T23:39:39.476Z,2.35
2023-04-14T23:42:08.625Z,2.40
2023-04-14T23:44:38.359Z,2.90
2023-04-14T23:47:08.402Z,2.80
2023-04-14T23:49:37.220Z,3.40
2023-04-14T23:52:05.889Z,2.97
2023-04-14T23:54:34.261Z,3.00
2023-04-14T23:57:03.514Z,3.35
2023-04-14T23:59:32.040Z,3.10
